sensor_id;sensor_type;location;lat;lon;timestamp;pressure;altitude;pressure_sealevel;temperature;humidity
4858;BME280;58975;51.978;8.472;2023-10-09T00:03:24;100751.81;;;10.86;100.00
4858;BME280;58975;51.978;8.472;2023-10-09T00:08:24;100742.78;;;11.00;100.00
4858;BME280;58975;51.978;8.472;2023-10-09T00:13:26;100742.28;;;11.06;100.00
4858;BME280;58975;51.978;8.472;2023-10-09T00:18:27;100718.56;;;11.03;100.00
4858;BME280;58975;51.978;8.472;2023-10-09T00:23:29;100715.16;;;11.01;100.00
4858;BME280;58975;51.978;8.472;2023-10-09T00:28:29;100748.78;;;10.90;100.00
4858;BME280;58975;51.978;8.472;2023-10-09T00:33:26;100749.53;;;10.81;100.00
4858;BME280;58975;51.978;8.472;2023-10-09T00:38:22;100735.34;;;10.81;100.00
4858;BME280;58975;51.978;8.472;2023-10-09T00:43:20;100728.69;;;10.86;100.00
4858;BME280;58975;51.978;8.472;2023-10-09T00:48:24;100734.38;;;10.82;100.00
4858;BME280;58975;51.978;8.472;2023-10-09T00:53:33;100716.28;;;10.74;100.00
4858;BME280;58975;51.978;8.472;2023-10-09T00:58:29;100714.47;;;10.75;100.00
4858;BME280;58975;51.978;8.472;2023-10-09T01:03:27;100689.31;;;10.90;100.00
4858;BME280;58975;51.978;8.472;2023-10-09T01:08:26;100683.66;;;11.06;100.00
4858;BME280;58975;51.978;8.472;2023-10-09T01:13:27;100712.88;;;11.07;100.00
4858;BME280;58975;51.978;8.472;2023-10-09T01:18:35;100726.56;;;11.14;100.00
4858;BME280;58975;51.978;8.472;2023-10-09T01:23:35;100749.25;;;11.19;100.00
4858;BME280;58975;51.978;8.472;2023-10-09T01:28:39;100748.13;;;11.11;100.00
4858;BME280;58975;51.978;8.472;2023-10-09T01:33:35;100758.19;;;11.18;100.00
4858;BME280;58975;51.978;8.472;2023-10-09T01:38:33;100756.16;;;11.33;100.00
4858;BME280;58975;51.978;8.472;2023-10-09T01:43:40;100761.00;;;11.39;100.00
4858;BME280;58975;51.978;8.472;2023-10-09T01:48:40;100769.50;;;11.44;100.00
4858;BME280;58975;51.978;8.472;2023-10-09T01:53:44;100769.72;;;11.41;100.00
4858;BME280;58975;51.978;8.472;2023-10-09T01:58:41;100766.34;;;11.39;100.00
4858;BME280;58975;51.978;8.472;2023-10-09T02:03:38;100756.91;;;11.46;100.00
4858;BME280;58975;51.978;8.472;2023-10-09T02:08:38;100760.16;;;11.50;100.00
4858;BME280;58975;51.978;8.472;2023-10-09T02:13:35;100764.28;;;11.54;100.00
4858;BME280;58975;51.978;8.472;2023-10-09T02:18:31;100758.59;;;11.69;100.00
4858;BME280;58975;51.978;8.472;2023-10-09T02:23:32;100765.41;;;11.73;100.00
4858;BME280;58975;51.978;8.472;2023-10-09T02:28:41;100748.19;;;11.77;100.00
4858;BME280;58975;51.978;8.472;2023-10-09T02:33:40;100727.34;;;11.82;100.00
4858;BME280;58975;51.978;8.472;2023-10-09T02:38:36;100725.16;;;11.88;100.00
4858;BME280;58975;51.978;8.472;2023-10-09T02:43:36;100728.66;;;11.88;100.00
4858;BME280;58975;51.978;8.472;2023-10-09T02:48:42;100721.25;;;11.80;100.00
4858;BME280;58975;51.978;8.472;2023-10-09T02:53:46;100725.16;;;11.88;100.00
4858;BME280;58975;51.978;8.472;2023-10-09T02:58:46;100738.59;;;11.86;100.00
4858;BME280;58975;51.978;8.472;2023-10-09T03:03:44;100731.31;;;11.88;100.00
4858;BME280;58975;51.978;8.472;2023-10-09T03:08:45;100718.34;;;11.95;100.00
4858;BME280;58975;51.978;8.472;2023-10-09T03:13:43;100719.31;;;11.94;100.00
4858;BME280;58975;51.978;8.472;2023-10-09T03:18:41;100722.34;;;11.89;100.00
4858;BME280;58975;51.978;8.472;2023-10-09T03:23:38;100711.81;;;11.76;100.00
4858;BME280;58975;51.978;8.472;2023-10-09T03:28:35;100703.69;;;11.78;100.00
4858;BME280;58975;51.978;8.472;2023-10-09T03:33:32;100703.78;;;11.76;100.00
4858;BME280;58975;51.978;8.472;2023-10-09T03:38:29;100695.44;;;11.81;100.00
4858;BME280;58975;51.978;8.472;2023-10-09T03:43:30;100701.38;;;11.84;100.00
4858;BME280;58975;51.978;8.472;2023-10-09T03:48:28;100700.66;;;11.82;100.00
4858;BME280;58975;51.978;8.472;2023-10-09T03:53:32;100713.03;;;11.83;100.00
4858;BME280;58975;51.978;8.472;2023-10-09T03:58:28;100699.47;;;11.75;100.00
4858;BME280;58975;51.978;8.472;2023-10-09T04:03:29;100694.34;;;11.83;100.00
4858;BME280;58975;51.978;8.472;2023-10-09T04:08:26;100705.72;;;11.85;100.00
4858;BME280;58975;51.978;8.472;2023-10-09T04:13:26;100705.47;;;11.89;100.00
4858;BME280;58975;51.978;8.472;2023-10-09T04:18:30;100701.63;;;11.81;100.00
4858;BME280;58975;51.978;8.472;2023-10-09T04:23:29;100707.69;;;11.83;100.00
4858;BME280;58975;51.978;8.472;2023-10-09T04:28:52;100706.88;;;11.72;100.00
4858;BME280;58975;51.978;8.472;2023-10-09T04:33:48;100709.13;;;11.76;100.00
4858;BME280;58975;51.978;8.472;2023-10-09T04:38:53;100718.25;;;11.74;100.00
4858;BME280;58975;51.978;8.472;2023-10-09T04:44:09;100702.59;;;11.80;100.00
4858;BME280;58975;51.978;8.472;2023-10-09T04:49:16;100707.19;;;11.90;100.00
4858;BME280;58975;51.978;8.472;2023-10-09T04:54:25;100699.91;;;11.92;100.00
4858;BME280;58975;51.978;8.472;2023-10-09T04:59:36;100710.47;;;11.82;100.00
4858;BME280;58975;51.978;8.472;2023-10-09T05:04:42;100737.41;;;11.79;100.00
4858;BME280;58975;51.978;8.472;2023-10-09T05:09:39;100735.94;;;11.86;100.00
4858;BME280;58975;51.978;8.472;2023-10-09T05:14:52;100743.44;;;11.92;100.00
4858;BME280;58975;51.978;8.472;2023-10-09T05:20:15;100749.63;;;11.93;100.00
4858;BME280;58975;51.978;8.472;2023-10-09T05:25:25;100735.06;;;11.97;100.00
4858;BME280;58975;51.978;8.472;2023-10-09T05:30:59;100748.31;;;11.98;100.00
4858;BME280;58975;51.978;8.472;2023-10-09T05:36:04;100760.75;;;12.09;100.00
4858;BME280;58975;51.978;8.472;2023-10-09T05:41:12;100765.88;;;12.01;100.00
4858;BME280;58975;51.978;8.472;2023-10-09T05:46:29;100762.25;;;12.02;100.00
4858;BME280;58975;51.978;8.472;2023-10-09T05:51:32;100774.97;;;12.09;100.00
4858;BME280;58975;51.978;8.472;2023-10-09T05:56:41;100782.59;;;12.25;100.00
4858;BME280;58975;51.978;8.472;2023-10-09T06:01:57;100788.03;;;12.35;100.00
4858;BME280;58975;51.978;8.472;2023-10-09T06:07:00;100784.75;;;12.42;100.00
4858;BME280;58975;51.978;8.472;2023-10-09T06:12:07;100805.94;;;12.55;100.00
4858;BME280;58975;51.978;8.472;2023-10-09T06:17:22;100820.63;;;12.60;100.00
4858;BME280;58975;51.978;8.472;2023-10-09T06:22:19;100808.91;;;12.72;100.00
4858;BME280;58975;51.978;8.472;2023-10-09T06:27:35;100807.53;;;12.89;100.00
4858;BME280;58975;51.978;8.472;2023-10-09T06:32:31;100819.06;;;12.90;100.00
4858;BME280;58975;51.978;8.472;2023-10-09T06:37:27;100819.25;;;12.98;100.00
4858;BME280;58975;51.978;8.472;2023-10-09T06:42:47;100831.72;;;13.08;100.00
4858;BME280;58975;51.978;8.472;2023-10-09T06:47:49;100828.19;;;13.19;100.00
4858;BME280;58975;51.978;8.472;2023-10-09T06:53:14;100815.78;;;13.18;100.00
4858;BME280;58975;51.978;8.472;2023-10-09T06:58:21;100824.38;;;13.21;100.00
4858;BME280;58975;51.978;8.472;2023-10-09T07:03:27;100827.41;;;13.28;100.00
4858;BME280;58975;51.978;8.472;2023-10-09T07:08:30;100802.69;;;13.36;100.00
4858;BME280;58975;51.978;8.472;2023-10-09T07:13:33;100801.56;;;13.38;100.00
4858;BME280;58975;51.978;8.472;2023-10-09T07:18:33;100799.06;;;13.46;100.00
4858;BME280;58975;51.978;8.472;2023-10-09T07:23:46;100787.03;;;13.61;100.00
4858;BME280;58975;51.978;8.472;2023-10-09T07:28:46;100769.38;;;13.80;100.00
4858;BME280;58975;51.978;8.472;2023-10-09T07:33:44;100780.53;;;13.85;100.00
4858;BME280;58975;51.978;8.472;2023-10-09T07:38:53;100790.66;;;13.81;100.00
4858;BME280;58975;51.978;8.472;2023-10-09T07:43:51;100792.47;;;13.81;100.00
4858;BME280;58975;51.978;8.472;2023-10-09T07:48:48;100779.72;;;13.94;100.00
4858;BME280;58975;51.978;8.472;2023-10-09T07:53:50;100771.03;;;14.11;100.00
4858;BME280;58975;51.978;8.472;2023-10-09T07:58:53;100778.97;;;14.22;100.00
4858;BME280;58975;51.978;8.472;2023-10-09T08:03:56;100794.59;;;14.17;100.00
4858;BME280;58975;51.978;8.472;2023-10-09T08:09:01;100774.94;;;14.47;100.00
4858;BME280;58975;51.978;8.472;2023-10-09T08:13:57;100761.41;;;14.58;100.00
4858;BME280;58975;51.978;8.472;2023-10-09T08:18:57;100762.53;;;14.55;100.00
4858;BME280;58975;51.978;8.472;2023-10-09T08:23:54;100767.31;;;14.52;100.00
4858;BME280;58975;51.978;8.472;2023-10-09T08:28:51;100776.66;;;14.57;100.00
4858;BME280;58975;51.978;8.472;2023-10-09T08:33:49;100770.16;;;14.60;100.00
4858;BME280;58975;51.978;8.472;2023-10-09T08:39:08;100780.59;;;14.63;100.00
4858;BME280;58975;51.978;8.472;2023-10-09T08:44:13;100775.94;;;14.65;100.00
4858;BME280;58975;51.978;8.472;2023-10-09T08:49:11;100765.94;;;14.77;100.00
4858;BME280;58975;51.978;8.472;2023-10-09T08:54:09;100765.78;;;14.88;100.00
4858;BME280;58975;51.978;8.472;2023-10-09T08:59:08;100755.19;;;14.96;100.00
4858;BME280;58975;51.978;8.472;2023-10-09T09:04:08;100746.25;;;15.14;100.00
4858;BME280;58975;51.978;8.472;2023-10-09T09:09:11;100757.03;;;15.05;100.00
4858;BME280;58975;51.978;8.472;2023-10-09T09:14:11;100747.72;;;15.09;100.00
4858;BME280;58975;51.978;8.472;2023-10-09T09:19:15;100746.69;;;15.20;100.00
4858;BME280;58975;51.978;8.472;2023-10-09T09:24:17;100743.69;;;15.32;100.00
4858;BME280;58975;51.978;8.472;2023-10-09T09:34:50;100701.63;;;15.23;100.00
4858;BME280;58975;51.978;8.472;2023-10-09T09:39:51;100690.41;;;15.37;100.00
4858;BME280;58975;51.978;8.472;2023-10-09T09:44:52;100672.88;;;15.52;100.00
4858;BME280;58975;51.978;8.472;2023-10-09T09:49:50;100649.41;;;15.54;100.00
4858;BME280;58975;51.978;8.472;2023-10-09T09:54:49;100637.16;;;15.70;100.00
4858;BME280;58975;51.978;8.472;2023-10-09T09:59:46;100628.53;;;15.76;100.00
4858;BME280;58975;51.978;8.472;2023-10-09T10:04:54;100642.84;;;15.67;100.00
4858;BME280;58975;51.978;8.472;2023-10-09T10:09:52;100636.09;;;15.63;100.00
4858;BME280;58975;51.978;8.472;2023-10-09T10:14:56;100636.22;;;15.61;100.00
4858;BME280;58975;51.978;8.472;2023-10-09T10:20:08;100624.69;;;15.78;100.00
4858;BME280;58975;51.978;8.472;2023-10-09T10:25:32;100615.19;;;16.01;100.00
4858;BME280;58975;51.978;8.472;2023-10-09T10:30:45;100603.28;;;16.04;100.00
4858;BME280;58975;51.978;8.472;2023-10-09T10:35:42;100601.53;;;15.95;100.00
4858;BME280;58975;51.978;8.472;2023-10-09T10:40:42;100607.59;;;15.97;100.00
4858;BME280;58975;51.978;8.472;2023-10-09T10:45:42;100630.56;;;15.91;100.00
4858;BME280;58975;51.978;8.472;2023-10-09T10:50:43;100626.94;;;15.83;100.00
4858;BME280;58975;51.978;8.472;2023-10-09T10:55:58;100649.31;;;15.74;100.00
4858;BME280;58975;51.978;8.472;2023-10-09T11:01:13;100655.28;;;15.68;100.00
4858;BME280;58975;51.978;8.472;2023-10-09T11:06:10;100666.06;;;15.58;100.00
4858;BME280;58975;51.978;8.472;2023-10-09T11:11:14;100739.56;;;15.47;100.00
4858;BME280;58975;51.978;8.472;2023-10-09T11:16:15;100759.06;;;15.40;100.00
4858;BME280;58975;51.978;8.472;2023-10-09T11:21:15;100750.91;;;15.32;100.00
4858;BME280;58975;51.978;8.472;2023-10-09T11:26:12;100739.31;;;15.31;100.00
4858;BME280;58975;51.978;8.472;2023-10-09T11:31:23;100727.00;;;15.38;100.00
4858;BME280;58975;51.978;8.472;2023-10-09T11:36:22;100737.03;;;15.36;100.00
4858;BME280;58975;51.978;8.472;2023-10-09T11:41:29;100731.94;;;15.52;100.00
4858;BME280;58975;51.978;8.472;2023-10-09T11:46:30;100729.63;;;15.57;100.00
4858;BME280;58975;51.978;8.472;2023-10-09T11:51:34;100742.06;;;15.49;100.00
4858;BME280;58975;51.978;8.472;2023-10-09T11:56:34;100742.38;;;15.46;100.00
4858;BME280;58975;51.978;8.472;2023-10-09T12:01:30;100737.00;;;15.46;100.00
4858;BME280;58975;51.978;8.472;2023-10-09T12:06:32;100751.84;;;15.50;100.00
4858;BME280;58975;51.978;8.472;2023-10-09T12:11:28;100736.59;;;15.50;100.00
4858;BME280;58975;51.978;8.472;2023-10-09T12:16:26;100722.88;;;15.53;100.00
4858;BME280;58975;51.978;8.472;2023-10-09T12:21:25;100713.22;;;15.60;100.00
4858;BME280;58975;51.978;8.472;2023-10-09T12:26:24;100716.50;;;15.64;100.00
4858;BME280;58975;51.978;8.472;2023-10-09T12:31:21;100720.00;;;15.65;100.00
4858;BME280;58975;51.978;8.472;2023-10-09T12:36:17;100709.25;;;15.65;100.00
4858;BME280;58975;51.978;8.472;2023-10-09T12:41:16;100700.94;;;15.68;100.00
4858;BME280;58975;51.978;8.472;2023-10-09T12:46:16;100717.72;;;15.70;100.00
4858;BME280;58975;51.978;8.472;2023-10-09T12:51:14;100703.31;;;15.71;100.00
4858;BME280;58975;51.978;8.472;2023-10-09T12:56:14;100692.50;;;15.80;100.00
4858;BME280;58975;51.978;8.472;2023-10-09T13:01:11;100697.72;;;15.82;100.00
4858;BME280;58975;51.978;8.472;2023-10-09T13:06:08;100683.16;;;15.84;100.00
4858;BME280;58975;51.978;8.472;2023-10-09T13:11:09;100694.44;;;15.88;100.00
4858;BME280;58975;51.978;8.472;2023-10-09T13:16:11;100692.88;;;15.95;100.00
4858;BME280;58975;51.978;8.472;2023-10-09T13:21:09;100683.69;;;15.88;100.00
4858;BME280;58975;51.978;8.472;2023-10-09T13:26:06;100682.41;;;15.92;100.00
4858;BME280;58975;51.978;8.472;2023-10-09T13:31:28;100681.72;;;15.90;100.00
4858;BME280;58975;51.978;8.472;2023-10-09T13:36:28;100678.59;;;15.94;100.00
4858;BME280;58975;51.978;8.472;2023-10-09T13:41:28;100673.75;;;15.98;100.00
4858;BME280;58975;51.978;8.472;2023-10-09T13:46:25;100668.91;;;16.01;100.00
4858;BME280;58975;51.978;8.472;2023-10-09T13:51:22;100675.06;;;16.12;100.00
4858;BME280;58975;51.978;8.472;2023-10-09T13:56:22;100668.25;;;16.17;100.00
4858;BME280;58975;51.978;8.472;2023-10-09T14:01:19;100668.78;;;16.21;100.00
4858;BME280;58975;51.978;8.472;2023-10-09T14:06:29;100671.91;;;16.16;100.00
4858;BME280;58975;51.978;8.472;2023-10-09T14:11:28;100665.25;;;16.20;100.00
4858;BME280;58975;51.978;8.472;2023-10-09T14:16:26;100663.94;;;16.24;100.00
4858;BME280;58975;51.978;8.472;2023-10-09T14:21:25;100663.94;;;16.24;100.00
4858;BME280;58975;51.978;8.472;2023-10-09T14:26:25;100669.31;;;16.24;100.00
4858;BME280;58975;51.978;8.472;2023-10-09T14:31:24;100667.34;;;16.26;100.00
4858;BME280;58975;51.978;8.472;2023-10-09T14:36:24;100666.03;;;16.30;100.00
4858;BME280;58975;51.978;8.472;2023-10-09T14:41:30;100655.63;;;16.35;100.00
4858;BME280;58975;51.978;8.472;2023-10-09T14:46:29;100652.94;;;16.35;100.00
4858;BME280;58975;51.978;8.472;2023-10-09T14:51:26;100659.34;;;16.34;100.00
4858;BME280;58975;51.978;8.472;2023-10-09T14:56:26;100662.56;;;16.38;100.00
4858;BME280;58975;51.978;8.472;2023-10-09T15:01:26;100668.63;;;16.40;100.00
4858;BME280;58975;51.978;8.472;2023-10-09T15:06:26;100659.09;;;16.45;100.00
4858;BME280;58975;51.978;8.472;2023-10-09T15:11:25;100652.78;;;16.54;100.00
4858;BME280;58975;51.978;8.472;2023-10-09T15:16:22;100655.28;;;16.66;100.00
4858;BME280;58975;51.978;8.472;2023-10-09T15:21:23;100638.56;;;16.80;100.00
4858;BME280;58975;51.978;8.472;2023-10-09T15:26:23;100641.97;;;16.82;100.00
4858;BME280;58975;51.978;8.472;2023-10-09T15:31:20;100649.31;;;16.80;100.00
4858;BME280;58975;51.978;8.472;2023-10-09T15:36:18;100646.56;;;16.72;100.00
4858;BME280;58975;51.978;8.472;2023-10-09T15:41:17;100650.56;;;16.68;100.00
4858;BME280;58975;51.978;8.472;2023-10-09T15:46:14;100647.22;;;16.66;100.00
4858;BME280;58975;51.978;8.472;2023-10-09T15:51:14;100656.59;;;16.62;100.00
4858;BME280;58975;51.978;8.472;2023-10-09T15:56:11;100658.75;;;16.58;100.00
4858;BME280;58975;51.978;8.472;2023-10-09T16:01:15;100665.22;;;16.55;100.00
4858;BME280;58975;51.978;8.472;2023-10-09T16:06:15;100667.91;;;16.55;100.00
4858;BME280;58975;51.978;8.472;2023-10-09T16:11:20;100668.22;;;16.52;100.00
4858;BME280;58975;51.978;8.472;2023-10-09T16:16:26;100675.31;;;16.53;100.00
4858;BME280;58975;51.978;8.472;2023-10-09T16:21:25;100679.00;;;16.52;100.00
4858;BME280;58975;51.978;8.472;2023-10-09T16:26:22;100677.28;;;16.51;100.00
4858;BME280;58975;51.978;8.472;2023-10-09T16:31:20;100693.59;;;16.50;100.00
4858;BME280;58975;51.978;8.472;2023-10-09T16:36:19;100693.06;;;16.46;100.00
4858;BME280;58975;51.978;8.472;2023-10-09T16:41:17;100691.19;;;16.47;100.00
4858;BME280;58975;51.978;8.472;2023-10-09T16:46:13;100706.31;;;16.48;100.00
4858;BME280;58975;51.978;8.472;2023-10-09T16:51:10;100704.50;;;16.48;100.00
4858;BME280;58975;51.978;8.472;2023-10-09T16:56:08;100723.63;;;16.45;100.00
4858;BME280;58975;51.978;8.472;2023-10-09T17:01:08;100720.75;;;16.47;100.00
4858;BME280;58975;51.978;8.472;2023-10-09T17:06:11;100739.03;;;16.43;100.00
4858;BME280;58975;51.978;8.472;2023-10-09T17:11:09;100735.50;;;16.43;100.00
4858;BME280;58975;51.978;8.472;2023-10-09T17:16:19;100739.34;;;16.40;100.00
4858;BME280;58975;51.978;8.472;2023-10-09T17:21:18;100739.13;;;16.34;100.00
4858;BME280;58975;51.978;8.472;2023-10-09T17:26:19;100748.50;;;16.30;100.00
4858;BME280;58975;51.978;8.472;2023-10-09T17:31:15;100753.59;;;16.23;100.00
4858;BME280;58975;51.978;8.472;2023-10-09T17:36:16;100766.66;;;16.18;100.00
4858;BME280;58975;51.978;8.472;2023-10-09T17:41:13;100778.41;;;16.17;100.00
4858;BME280;58975;51.978;8.472;2023-10-09T17:46:09;100777.72;;;16.15;100.00
4858;BME280;58975;51.978;8.472;2023-10-09T17:51:08;100780.25;;;16.17;100.00
4858;BME280;58975;51.978;8.472;2023-10-09T17:56:07;100797.22;;;16.17;100.00
4858;BME280;58975;51.978;8.472;2023-10-09T18:01:06;100796.22;;;16.18;100.00
4858;BME280;58975;51.978;8.472;2023-10-09T18:06:05;100798.91;;;16.18;100.00
4858;BME280;58975;51.978;8.472;2023-10-09T18:11:01;100807.97;;;16.17;100.00
4858;BME280;58975;51.978;8.472;2023-10-09T18:16:03;100822.78;;;16.21;100.00
4858;BME280;58975;51.978;8.472;2023-10-09T18:21:08;100820.66;;;16.25;100.00
4858;BME280;58975;51.978;8.472;2023-10-09T18:26:04;100827.00;;;16.24;100.00
4858;BME280;58975;51.978;8.472;2023-10-09T18:31:09;100821.81;;;16.22;100.00
4858;BME280;58975;51.978;8.472;2023-10-09T18:36:09;100818.94;;;16.24;100.00
4858;BME280;58975;51.978;8.472;2023-10-09T18:41:06;100826.75;;;16.27;100.00
4858;BME280;58975;51.978;8.472;2023-10-09T18:46:03;100815.81;;;16.28;100.00
4858;BME280;58975;51.978;8.472;2023-10-09T18:56:58;100825.72;;;16.28;100.00
4858;BME280;58975;51.978;8.472;2023-10-09T19:01:56;100836.47;;;16.28;100.00
4858;BME280;58975;51.978;8.472;2023-10-09T19:06:52;100831.94;;;16.28;100.00
4858;BME280;58975;51.978;8.472;2023-10-09T19:11:51;100823.88;;;16.28;100.00
4858;BME280;58975;51.978;8.472;2023-10-09T19:16:54;100828.28;;;16.29;100.00
4858;BME280;58975;51.978;8.472;2023-10-09T19:21:54;100817.81;;;16.26;100.00
4858;BME280;58975;51.978;8.472;2023-10-09T19:26:51;100810.75;;;16.25;100.00
4858;BME280;58975;51.978;8.472;2023-10-09T19:31:49;100814.72;;;16.21;100.00
4858;BME280;58975;51.978;8.472;2023-10-09T19:36:47;100827.75;;;16.16;100.00
4858;BME280;58975;51.978;8.472;2023-10-09T19:41:44;100824.22;;;16.16;100.00
4858;BME280;58975;51.978;8.472;2023-10-09T19:46:40;100816.63;;;16.11;100.00
4858;BME280;58975;51.978;8.472;2023-10-09T19:51:40;100834.03;;;16.07;100.00
4858;BME280;58975;51.978;8.472;2023-10-09T19:56:37;100843.09;;;16.06;100.00
4858;BME280;58975;51.978;8.472;2023-10-09T20:01:34;100854.13;;;16.03;100.00
4858;BME280;58975;51.978;8.472;2023-10-09T20:06:31;100867.28;;;16.06;100.00
4858;BME280;58975;51.978;8.472;2023-10-09T20:11:28;100864.59;;;16.06;100.00
4858;BME280;58975;51.978;8.472;2023-10-09T20:16:24;100865.13;;;16.09;100.00
4858;BME280;58975;51.978;8.472;2023-10-09T20:21:22;100865.97;;;16.10;100.00
4858;BME280;58975;51.978;8.472;2023-10-09T20:26:19;100871.50;;;16.08;100.00
4858;BME280;58975;51.978;8.472;2023-10-09T20:31:16;100877.72;;;16.09;100.00
4858;BME280;58975;51.978;8.472;2023-10-09T20:36:13;100880.41;;;16.09;100.00
4858;BME280;58975;51.978;8.472;2023-10-09T20:41:14;100886.06;;;16.06;100.00
4858;BME280;58975;51.978;8.472;2023-10-09T20:46:11;100894.44;;;16.03;100.00
4858;BME280;58975;51.978;8.472;2023-10-09T20:51:08;100901.66;;;16.02;100.00
4858;BME280;58975;51.978;8.472;2023-10-09T20:56:06;100894.03;;;15.98;100.00
4858;BME280;58975;51.978;8.472;2023-10-09T21:01:08;100905.06;;;15.95;100.00
4858;BME280;58975;51.978;8.472;2023-10-09T21:06:13;100901.81;;;15.91;100.00
4858;BME280;58975;51.978;8.472;2023-10-09T21:11:09;100910.56;;;15.93;100.00
4858;BME280;58975;51.978;8.472;2023-10-09T21:16:07;100916.78;;;15.94;100.00
4858;BME280;58975;51.978;8.472;2023-10-09T21:21:08;100922.16;;;15.94;100.00
4858;BME280;58975;51.978;8.472;2023-10-09T21:26:05;100925.16;;;15.91;100.00
4858;BME280;58975;51.978;8.472;2023-10-09T21:31:02;100930.78;;;15.88;100.00
4858;BME280;58975;51.978;8.472;2023-10-09T21:35:59;100928.41;;;15.85;100.00
4858;BME280;58975;51.978;8.472;2023-10-09T21:40:56;100949.19;;;15.83;100.00
4858;BME280;58975;51.978;8.472;2023-10-09T21:45:53;100942.13;;;15.82;100.00
4858;BME280;58975;51.978;8.472;2023-10-09T21:50:54;100936.88;;;15.80;100.00
4858;BME280;58975;51.978;8.472;2023-10-09T21:55:50;100952.16;;;15.80;100.00
4858;BME280;58975;51.978;8.472;2023-10-09T22:00:47;100960.22;;;15.80;100.00
4858;BME280;58975;51.978;8.472;2023-10-09T22:05:43;100948.66;;;15.60;100.00
4858;BME280;58975;51.978;8.472;2023-10-09T22:10:42;100915.84;;;15.47;100.00
4858;BME280;58975;51.978;8.472;2023-10-09T22:15:43;100901.44;;;15.48;100.00
4858;BME280;58975;51.978;8.472;2023-10-09T22:20:40;100892.09;;;15.42;100.00
4858;BME280;58975;51.978;8.472;2023-10-09T22:25:43;100880.53;;;15.42;100.00
4858;BME280;58975;51.978;8.472;2023-10-09T22:30:42;100871.91;;;15.38;100.00
4858;BME280;58975;51.978;8.472;2023-10-09T22:35:40;100862.44;;;15.34;100.00
4858;BME280;58975;51.978;8.472;2023-10-09T22:40:41;100852.13;;;15.30;100.00
4858;BME280;58975;51.978;8.472;2023-10-09T22:45:38;100851.59;;;15.26;100.00
4858;BME280;58975;51.978;8.472;2023-10-09T22:50:46;100855.41;;;15.24;100.00
4858;BME280;58975;51.978;8.472;2023-10-09T22:55:42;100841.44;;;15.20;100.00
4858;BME280;58975;51.978;8.472;2023-10-09T23:00:47;100830.28;;;15.15;100.00
4858;BME280;58975;51.978;8.472;2023-10-09T23:05:47;100843.69;;;15.15;100.00
4858;BME280;58975;51.978;8.472;2023-10-09T23:10:44;100841.28;;;15.12;100.00
4858;BME280;58975;51.978;8.472;2023-10-09T23:15:48;100842.28;;;15.11;100.00
4858;BME280;58975;51.978;8.472;2023-10-09T23:21:03;100839.72;;;15.09;100.00
4858;BME280;58975;51.978;8.472;2023-10-09T23:26:18;100838.06;;;15.08;100.00
4858;BME280;58975;51.978;8.472;2023-10-09T23:31:19;100834.81;;;15.05;100.00
4858;BME280;58975;51.978;8.472;2023-10-09T23:36:43;100852.56;;;15.06;100.00
4858;BME280;58975;51.978;8.472;2023-10-09T23:41:41;100841.16;;;15.04;100.00
4858;BME280;58975;51.978;8.472;2023-10-09T23:46:55;100851.16;;;15.02;100.00
4858;BME280;58975;51.978;8.472;2023-10-09T23:51:51;100847.91;;;14.98;100.00
4858;BME280;58975;51.978;8.472;2023-10-09T23:56:50;100845.09;;;15.00;100.00
